Farmville, VA (23901)

9:19 AM EDT on July 29, 2016 (GMT -0400)
HSC Athletics | | Change Station

Elev 515 ft 37.25 °N, 78.46 °W | Updated 25 seconds ago

Mostly Cloudy
Mostly Cloudy
76.2 °F
Feels Like 76 °F
N
1.0
Wind Variable Wind from NE
Gusts 5.0 mph

Today
High -- | Low -- °F
--% Chance of Precip.
Yesterday
High -- | Low -- °F
Precip. -- in
Pressure 29.90 in
Visibility 10.0 miles
Clouds Mostly Cloudy 600 ft
Heat Index 76 °F
Dew Point 73 °F
Humidity 90%
Rainfall 0.00 in
Snow Depth Not available.
6:16 AM 8:23 PM
Waning Crescent, 22% visible
METAR KFVX 291255Z AUTO 00000KT 10SM BKN006 25/25 A2990 RMK AO2 T02510248
Pressure 29.90 in
Visibility 10.0 miles
Clouds Mostly Cloudy 600 ft
Heat Index 76 °F
Dew Point 73 °F
Humidity 90%
Rainfall 0.00 in
Snow Depth Not available.
6:16 AM 8:23 PM
Waning Crescent, 22% visible
METAR KFVX 291255Z AUTO 00000KT 10SM BKN006 25/25 A2990 RMK AO2 T02510248

10-Day Weather Forecast

Almanac

Astronomy

Jul. 29, 2016 Rise Set
Actual Time
Civil Twilight
Nautical Twilight
Astronomical Twilight
Moon
Length of Visible Light
Length of Day
Tomorrow will be .
, % of the Moon is Illuminated

Today's Extremes

State Highs State Lows

Community

WunderPhotos

Upload Photos

1,928,339 photos uploaded!

WunderBlog® & News

Nearby

Air Quality

  Air Quality AQ Index Pollutant
Not available.

Snow Depth

Station Depth Elevation

Earthquake Activity

City Distance Mag. Time & Date
Minimum magnitude displayed is 2.5.

Coastal Water Temperatures

Place Temperature

Stations

Nearby Weather Stations

Station Location Temp. Windchill Dew Point Humidity Wind Precip. Elev Updated Type
                   

Watches & Warnings

There are currently no watches in effect.